createdAt,value
2018-06-07T00:00:16.182Z,63.21
2018-06-07T00:02:44.970Z,63.26
2018-06-07T00:05:13.950Z,63.85
2018-06-07T00:07:42.654Z,63.66
2018-06-07T00:10:11.647Z,64.10
2018-06-07T00:12:40.484Z,63.81
2018-06-07T00:15:09.326Z,63.80
2018-06-07T00:17:38.153Z,63.87
2018-06-07T00:20:06.934Z,63.95
2018-06-07T00:22:35.947Z,64.30
2018-06-07T00:25:04.880Z,64.68
2018-06-07T00:27:35.366Z,64.41
2018-06-07T00:30:04.198Z,64.49
2018-06-07T00:32:33.097Z,64.70
2018-06-07T00:35:01.876Z,64.87
2018-06-07T00:37:30.786Z,64.84
2018-06-07T00:39:59.694Z,64.84
2018-06-07T00:42:28.921Z,65.12
2018-06-07T00:44:57.639Z,65.16
2018-06-07T00:47:26.448Z,64.91
2018-06-07T00:49:55.254Z,64.90
2018-06-07T00:52:24.135Z,64.64
2018-06-07T00:54:53.226Z,64.98
2018-06-07T00:57:22.194Z,65.18
2018-06-07T00:59:51.108Z,65.45
2018-06-07T01:02:19.768Z,65.61
2018-06-07T01:04:48.646Z,65.57
2018-06-07T01:07:17.609Z,65.46
2018-06-07T01:09:46.413Z,65.76
2018-06-07T01:12:15.296Z,65.96
2018-06-07T01:14:44.318Z,65.87
2018-06-07T01:17:13.341Z,66.27
2018-06-07T01:19:42.177Z,66.80
2018-06-07T01:22:11.101Z,66.89
2018-06-07T01:24:39.918Z,66.29
2018-06-07T01:27:09.198Z,66.62
2018-06-07T01:29:49.021Z,66.79
2018-06-07T01:34:21.772Z,66.79
2018-06-07T01:36:50.801Z,66.39
2018-06-07T01:39:19.703Z,66.59
2018-06-07T01:41:48.621Z,66.45
2018-06-07T01:44:17.562Z,66.74
2018-06-07T01:46:46.360Z,67.27
2018-06-07T01:49:15.280Z,67.23
2018-06-07T01:51:44.348Z,67.63
2018-06-07T01:54:13.456Z,67.78
2018-06-07T01:56:42.359Z,67.52
2018-06-07T01:59:11.175Z,67.92
2018-06-07T02:01:40.138Z,67.81
2018-06-07T02:04:09.877Z,67.64
2018-06-07T02:06:38.784Z,68.24
2018-06-07T02:09:10.021Z,68.02
2018-06-07T02:11:39.075Z,68.20
2018-06-07T02:14:08.825Z,68.16
2018-06-07T02:16:37.773Z,68.22
2018-06-07T02:19:06.542Z,68.38
2018-06-07T02:21:35.503Z,68.60
2018-06-07T02:24:04.437Z,68.46
2018-06-07T02:26:33.611Z,68.82
2018-06-07T02:29:02.521Z,69.06
2018-06-07T02:31:31.534Z,69.51
2018-06-07T02:34:00.358Z,69.32
2018-06-07T02:36:29.242Z,69.23
2018-06-07T02:38:58.189Z,68.85
2018-06-07T02:41:27.164Z,68.69
2018-06-07T02:43:55.926Z,68.64
2018-06-07T02:46:24.751Z,68.65
2018-06-07T02:48:53.775Z,68.47
2018-06-07T02:51:23.540Z,68.44
2018-06-07T02:53:52.465Z,68.36
2018-06-07T02:56:21.279Z,68.50
2018-06-07T02:58:50.151Z,68.26
2018-06-07T03:01:18.938Z,68.02
2018-06-07T03:03:47.820Z,67.79
2018-06-07T03:06:16.747Z,67.92
2018-06-07T03:08:45.767Z,68.14
2018-06-07T03:11:14.589Z,67.77
2018-06-07T03:13:43.363Z,67.85
2018-06-07T03:16:12.137Z,67.81
2018-06-07T03:18:40.919Z,67.78
2018-06-07T03:21:09.886Z,67.49
2018-06-07T03:23:38.746Z,67.89
2018-06-07T03:26:07.616Z,67.19
2018-06-07T03:28:36.422Z,67.22
2018-06-07T03:31:05.342Z,66.93
2018-06-07T03:33:34.237Z,66.89
2018-06-07T03:36:03.054Z,66.83
2018-06-07T03:38:31.901Z,66.58
2018-06-07T03:41:01.113Z,66.64
2018-06-07T03:43:29.865Z,66.35
2018-06-07T03:45:58.659Z,66.16
2018-06-07T03:48:27.729Z,65.83
2018-06-07T03:50:56.621Z,66.78
2018-06-07T03:53:25.628Z,66.58
2018-06-07T03:55:54.520Z,66.62
2018-06-07T03:58:23.306Z,66.24
2018-06-07T04:00:52.309Z,66.26
2018-06-07T04:03:21.287Z,66.60
2018-06-07T04:05:50.126Z,66.80
2018-06-07T04:08:19.002Z,66.88
2018-06-07T04:10:47.862Z,66.29
2018-06-07T04:13:17.573Z,65.66
2018-06-07T04:15:46.522Z,65.16
2018-06-07T04:18:15.477Z,64.95
2018-06-07T04:20:44.562Z,64.96
2018-06-07T04:23:13.371Z,64.99
2018-06-07T04:25:42.301Z,65.41
2018-06-07T04:28:11.215Z,65.34
2018-06-07T04:30:40.024Z,65.09
2018-06-07T04:33:08.839Z,64.58
2018-06-07T04:35:37.742Z,64.37
2018-06-07T04:38:06.604Z,64.31
2018-06-07T04:40:35.389Z,64.29
2018-06-07T04:43:04.245Z,65.02
2018-06-07T04:45:33.101Z,64.65
2018-06-07T04:48:01.955Z,64.22
2018-06-07T04:50:30.723Z,64.47
2018-06-07T04:52:59.568Z,64.12
2018-06-07T04:55:28.808Z,63.03
2018-06-07T04:57:57.719Z,63.04
2018-06-07T05:00:26.659Z,63.36
2018-06-07T05:02:55.431Z,63.20
2018-06-07T05:05:24.282Z,63.28
2018-06-07T05:07:53.401Z,63.01
2018-06-07T05:10:22.291Z,63.70
2018-06-07T05:12:51.411Z,62.95
2018-06-07T05:15:20.280Z,61.52
2018-06-07T05:17:49.031Z,61.81
2018-06-07T05:20:17.856Z,61.30
2018-06-07T05:22:46.732Z,61.92
2018-06-07T05:25:15.644Z,61.42
2018-06-07T05:27:44.526Z,61.64
2018-06-07T05:30:13.332Z,62.01
2018-06-07T05:32:42.315Z,62.38
2018-06-07T05:35:11.174Z,62.31
2018-06-07T05:37:39.997Z,62.46
2018-06-07T05:40:08.878Z,62.44
2018-06-07T05:42:37.730Z,62.05
2018-06-07T05:45:06.820Z,62.30
2018-06-07T05:47:35.990Z,61.58
2018-06-07T05:50:05.363Z,61.58
2018-06-07T05:52:34.191Z,61.72
2018-06-07T05:55:03.341Z,61.47
2018-06-07T05:57:32.545Z,61.65
2018-06-07T06:00:01.648Z,61.86
2018-06-07T06:02:30.685Z,61.58
2018-06-07T06:04:59.688Z,61.72
2018-06-07T06:07:28.590Z,61.74
2018-06-07T06:09:57.735Z,61.52
2018-06-07T06:12:26.830Z,61.82
2018-06-07T06:14:55.841Z,61.97
2018-06-07T06:17:25.017Z,62.14
2018-06-07T06:19:54.188Z,61.24
2018-06-07T06:22:23.210Z,60.53
2018-06-07T06:24:52.107Z,60.33
2018-06-07T06:27:21.022Z,60.80
2018-06-07T06:29:49.906Z,60.91
2018-06-07T06:32:18.838Z,61.29
2018-06-07T06:34:47.637Z,61.20
2018-06-07T06:37:17.964Z,60.56
2018-06-07T06:39:46.864Z,59.81
2018-06-07T06:42:15.737Z,60.40
2018-06-07T06:44:44.765Z,59.95
2018-06-07T06:47:13.822Z,59.52
2018-06-07T06:49:42.750Z,60.00
2018-06-07T06:52:11.666Z,59.44
2018-06-07T06:54:40.457Z,59.29
2018-06-07T06:57:09.435Z,59.90
2018-06-07T06:59:38.464Z,59.01
2018-06-07T07:02:07.514Z,58.67
2018-06-07T07:04:36.467Z,58.85
2018-06-07T07:07:05.546Z,58.36
2018-06-07T07:09:34.576Z,58.22
2018-06-07T07:12:03.426Z,57.88
2018-06-07T07:14:32.485Z,57.26
2018-06-07T07:17:01.496Z,57.47
2018-06-07T07:19:30.402Z,57.40
2018-06-07T07:21:59.176Z,57.08
2018-06-07T07:24:28.228Z,57.29
2018-06-07T07:26:57.186Z,57.34
2018-06-07T07:29:26.131Z,57.74
2018-06-07T07:31:54.921Z,57.55
2018-06-07T07:34:23.842Z,56.96
2018-06-07T07:36:52.553Z,56.29
2018-06-07T07:39:21.663Z,56.89
2018-06-07T07:41:51.117Z,57.32
2018-06-07T07:44:19.924Z,57.61
2018-06-07T07:46:49.442Z,57.41
2018-06-07T07:49:18.706Z,57.25
2018-06-07T07:51:47.646Z,57.10
2018-06-07T07:54:16.546Z,57.04
2018-06-07T07:56:45.592Z,56.80
2018-06-07T07:59:14.378Z,55.90
2018-06-07T08:01:44.415Z,55.74
2018-06-07T08:04:13.813Z,55.63
2018-06-07T08:06:43.530Z,55.47
2018-06-07T08:09:12.215Z,56.18
2018-06-07T08:11:41.007Z,56.23
2018-06-07T08:14:09.825Z,56.64
2018-06-07T08:16:38.541Z,55.85
2018-06-07T08:19:07.501Z,55.85
2018-06-07T08:21:36.539Z,55.82
2018-06-07T08:24:05.546Z,55.51
2018-06-07T08:26:34.425Z,53.87
2018-06-07T08:29:03.279Z,53.85
2018-06-07T08:31:32.707Z,53.07
2018-06-07T08:34:01.746Z,52.19
2018-06-07T08:36:30.839Z,51.88
2018-06-07T08:39:00.362Z,51.86
2018-06-07T08:41:29.820Z,51.96
2018-06-07T08:43:58.761Z,51.95
2018-06-07T08:46:27.594Z,52.47
2018-06-07T08:48:56.726Z,51.73
2018-06-07T08:51:26.007Z,50.90
2018-06-07T08:53:54.830Z,49.65
2018-06-07T08:56:23.909Z,49.14
2018-06-07T08:58:53.050Z,48.58
2018-06-07T09:01:21.806Z,48.23
2018-06-07T09:03:50.665Z,48.56
2018-06-07T09:06:19.475Z,48.06
2018-06-07T09:08:48.183Z,47.52
2018-06-07T09:11:17.343Z,47.98
2018-06-07T09:13:46.401Z,47.88
2018-06-07T09:16:16.261Z,48.28
2018-06-07T09:18:45.489Z,48.62
2018-06-07T09:21:14.490Z,47.96
2018-06-07T09:23:43.698Z,47.88
2018-06-07T09:26:12.519Z,48.10
2018-06-07T09:28:41.377Z,48.20
2018-06-07T09:31:10.406Z,48.82
2018-06-07T09:33:39.685Z,48.36
2018-06-07T09:36:08.807Z,47.52
2018-06-07T09:38:37.877Z,47.54
2018-06-07T09:41:06.949Z,47.53
2018-06-07T09:43:35.700Z,47.48
2018-06-07T09:46:04.558Z,47.89
2018-06-07T09:48:33.776Z,48.01
2018-06-07T09:51:02.713Z,47.82
2018-06-07T09:53:31.837Z,48.07
2018-06-07T09:56:00.700Z,47.70
2018-06-07T09:58:29.577Z,47.55
2018-06-07T10:00:58.647Z,48.60
2018-06-07T10:03:27.626Z,48.49
2018-06-07T10:05:56.733Z,47.90
2018-06-07T10:08:25.632Z,49.00
2018-06-07T10:10:54.630Z,48.46
2018-06-07T10:13:23.654Z,48.14
2018-06-07T10:15:52.484Z,48.37
2018-06-07T10:18:21.463Z,48.74
2018-06-07T10:20:58.118Z,47.63
2018-06-07T10:23:27.156Z,47.41
2018-06-07T10:25:56.485Z,46.88
2018-06-07T10:28:25.648Z,46.62
2018-06-07T10:30:54.381Z,46.57
2018-06-07T10:33:24.141Z,46.43
2018-06-07T10:35:53.312Z,46.74
2018-06-07T10:38:22.307Z,46.46
2018-06-07T10:40:51.914Z,46.05
2018-06-07T10:43:20.977Z,45.49
2018-06-07T10:45:50.130Z,46.66
2018-06-07T10:48:19.082Z,46.12
2018-06-07T10:50:48.170Z,46.02
2018-06-07T10:53:16.881Z,46.42
2018-06-07T10:55:45.828Z,46.50
2018-06-07T10:58:15.122Z,46.01
2018-06-07T11:00:44.451Z,46.00
2018-06-07T11:03:13.458Z,45.86
2018-06-07T11:05:42.291Z,45.65
2018-06-07T11:08:11.236Z,46.04
2018-06-07T11:10:40.315Z,45.88
2018-06-07T11:13:09.221Z,45.66
2018-06-07T11:15:38.379Z,44.84
2018-06-07T11:18:09.354Z,45.52
2018-06-07T11:20:38.971Z,45.26
2018-06-07T11:23:08.685Z,44.56
2018-06-07T11:25:40.132Z,45.27
2018-06-07T11:28:09.053Z,45.82
2018-06-07T11:30:38.074Z,45.43
2018-06-07T11:33:07.189Z,45.63
2018-06-07T11:35:36.369Z,45.62
2018-06-07T11:38:05.356Z,44.99
2018-06-07T11:40:34.388Z,44.78
2018-06-07T11:43:03.355Z,45.95
2018-06-07T11:45:32.342Z,45.55
2018-06-07T11:48:01.433Z,44.89
2018-06-07T11:50:30.383Z,44.07
2018-06-07T11:52:59.520Z,44.25
2018-06-07T11:55:28.531Z,43.50
2018-06-07T11:57:57.744Z,43.36
2018-06-07T12:00:26.620Z,42.72
2018-06-07T12:02:57.484Z,42.63
2018-06-07T12:05:26.582Z,43.18
2018-06-07T12:07:55.781Z,42.93
2018-06-07T12:10:24.905Z,42.79
2018-06-07T12:12:54.240Z,42.03
2018-06-07T12:15:23.364Z,40.03
2018-06-07T12:17:52.329Z,38.17
2018-06-07T12:20:21.497Z,37.35
2018-06-07T12:22:50.266Z,37.72
2018-06-07T12:25:19.181Z,39.38
2018-06-07T12:27:48.073Z,38.54
2018-06-07T12:30:17.045Z,37.32
2018-06-07T12:32:46.188Z,37.51
2018-06-07T12:35:15.306Z,38.82
2018-06-07T12:37:44.619Z,39.15
2018-06-07T12:40:13.754Z,40.60
2018-06-07T12:42:42.735Z,41.43
2018-06-07T12:45:12.080Z,41.84
2018-06-07T12:47:41.370Z,40.58
2018-06-07T12:50:10.221Z,38.80
2018-06-07T12:52:39.100Z,39.35
2018-06-07T12:55:08.155Z,40.63
2018-06-07T12:57:37.200Z,41.87
2018-06-07T13:00:06.523Z,41.93
2018-06-07T13:02:35.486Z,43.10
2018-06-07T13:05:04.506Z,43.57
2018-06-07T13:07:33.454Z,43.89
2018-06-07T13:10:02.449Z,43.39
2018-06-07T13:12:31.616Z,44.54
2018-06-07T13:15:00.750Z,44.93
2018-06-07T13:17:29.527Z,44.03
2018-06-07T13:19:58.726Z,45.38
2018-06-07T13:22:27.632Z,45.43
2018-06-07T13:24:56.453Z,45.99
2018-06-07T13:27:25.513Z,46.52
2018-06-07T13:29:54.406Z,47.04
2018-06-07T13:32:23.737Z,47.35
2018-06-07T13:34:55.855Z,48.03
2018-06-07T13:37:24.842Z,47.63
2018-06-07T13:39:54.677Z,47.51
2018-06-07T13:42:23.639Z,46.94
2018-06-07T13:44:52.838Z,46.24
2018-06-07T13:47:22.021Z,46.43
2018-06-07T13:49:51.053Z,48.04
2018-06-07T13:52:20.500Z,49.43
2018-06-07T13:54:50.089Z,49.70
2018-06-07T13:57:19.288Z,48.01
2018-06-07T13:59:48.495Z,47.37
2018-06-07T14:02:18.140Z,46.92
2018-06-07T14:04:47.603Z,47.20
2018-06-07T14:07:16.409Z,48.18
2018-06-07T14:09:45.672Z,48.35
2018-06-07T14:12:15.023Z,49.24
2018-06-07T14:14:43.898Z,49.11
2018-06-07T14:17:13.043Z,47.10
2018-06-07T14:19:42.601Z,47.87
2018-06-07T14:22:11.662Z,47.08
2018-06-07T14:24:40.936Z,48.95
2018-06-07T14:27:10.018Z,49.90
2018-06-07T14:29:39.130Z,49.27
2018-06-07T14:32:08.066Z,50.01
2018-06-07T14:34:37.090Z,51.61
2018-06-07T14:37:06.233Z,49.00
2018-06-07T14:39:35.163Z,48.55
2018-06-07T14:42:04.173Z,50.01
2018-06-07T14:44:33.280Z,50.76
2018-06-07T14:47:02.450Z,48.35
2018-06-07T14:49:31.542Z,49.70
2018-06-07T14:52:00.794Z,50.12
2018-06-07T14:54:29.792Z,50.22
2018-06-07T14:56:58.668Z,51.64
2018-06-07T14:59:27.735Z,54.48
2018-06-07T15:01:56.694Z,55.79
2018-06-07T15:04:25.721Z,54.43
2018-06-07T15:06:54.547Z,53.45
2018-06-07T15:09:26.300Z,52.94
2018-06-07T15:11:55.260Z,53.41
2018-06-07T15:14:24.453Z,54.18
2018-06-07T15:16:53.753Z,54.83
2018-06-07T15:19:22.833Z,54.34
2018-06-07T15:21:51.939Z,54.69
2018-06-07T15:24:21.090Z,54.54
2018-06-07T15:26:50.301Z,54.66
2018-06-07T15:29:20.076Z,54.63
2018-06-07T15:31:48.984Z,55.73
2018-06-07T15:34:18.102Z,53.33
2018-06-07T15:36:47.437Z,53.27
2018-06-07T15:39:16.789Z,53.38
2018-06-07T15:41:46.074Z,53.06
2018-06-07T15:44:16.300Z,53.04
2018-06-07T15:46:45.044Z,53.79
2018-06-07T15:49:13.918Z,53.38
2018-06-07T15:51:43.191Z,53.17
2018-06-07T15:54:12.179Z,52.40
2018-06-07T15:56:41.078Z,52.98
2018-06-07T15:59:10.034Z,52.70
2018-06-07T16:01:38.767Z,51.75
2018-06-07T16:04:07.863Z,51.49
2018-06-07T16:06:36.833Z,50.89
2018-06-07T16:09:08.595Z,51.04
2018-06-07T16:11:37.425Z,51.00
2018-06-07T16:14:06.350Z,54.49
2018-06-07T16:16:35.328Z,56.72
2018-06-07T16:19:04.409Z,56.32
2018-06-07T16:21:33.148Z,56.00
2018-06-07T16:24:03.141Z,57.24
2018-06-07T16:26:31.885Z,56.48
2018-06-07T16:29:02.067Z,56.20
2018-06-07T16:31:32.366Z,57.20
2018-06-07T16:34:03.416Z,56.27
2018-06-07T16:36:35.065Z,56.79
2018-06-07T16:39:06.584Z,56.87
2018-06-07T16:41:36.107Z,55.32
2018-06-07T16:44:06.991Z,55.34
2018-06-07T16:46:36.268Z,55.95
2018-06-07T16:49:05.378Z,56.24
2018-06-07T16:51:34.232Z,55.24
2018-06-07T16:54:03.340Z,55.97
2018-06-07T16:56:32.226Z,56.64
2018-06-07T16:59:01.187Z,56.35
2018-06-07T17:01:30.348Z,56.87
2018-06-07T17:03:59.440Z,57.42
2018-06-07T17:06:28.347Z,57.82
2018-06-07T17:08:57.415Z,57.61
2018-06-07T17:11:26.320Z,58.32
2018-06-07T17:13:55.196Z,58.28
2018-06-07T17:16:24.475Z,54.36
2018-06-07T17:18:53.395Z,54.42
2018-06-07T17:21:22.328Z,54.26
2018-06-07T17:23:51.244Z,54.42
2018-06-07T17:26:20.150Z,53.89
2018-06-07T17:28:49.163Z,54.32
2018-06-07T17:31:18.258Z,54.84
2018-06-07T17:33:47.190Z,60.88
2018-06-07T17:36:16.185Z,61.47
2018-06-07T17:38:45.131Z,64.34
2018-06-07T17:41:14.173Z,65.44
2018-06-07T17:43:43.470Z,65.78
2018-06-07T17:46:12.211Z,65.67
2018-06-07T17:48:41.314Z,68.48
2018-06-07T17:51:10.290Z,68.90
2018-06-07T17:53:39.425Z,69.84
2018-06-07T17:56:08.333Z,70.45
2018-06-07T17:58:37.293Z,70.39
2018-06-07T18:01:06.566Z,69.50
2018-06-07T18:03:35.526Z,68.73
2018-06-07T18:06:04.620Z,68.77
2018-06-07T18:08:33.715Z,69.17
2018-06-07T18:11:02.606Z,69.16
2018-06-07T18:13:31.514Z,68.65
2018-06-07T18:16:00.789Z,68.74
2018-06-07T18:18:29.674Z,67.04
2018-06-07T18:20:58.721Z,66.33
2018-06-07T18:23:27.490Z,66.05
2018-06-07T18:25:56.454Z,68.03
2018-06-07T18:28:25.400Z,66.68
2018-06-07T18:30:54.559Z,67.98
2018-06-07T18:33:23.593Z,67.73
2018-06-07T18:35:52.399Z,68.05
2018-06-07T18:38:21.292Z,69.32
2018-06-07T18:40:50.235Z,70.37
2018-06-07T18:43:19.294Z,70.13
2018-06-07T18:45:48.117Z,71.05
2018-06-07T18:48:16.877Z,70.16
2018-06-07T18:50:45.685Z,70.10
2018-06-07T18:53:14.570Z,68.87
2018-06-07T18:55:43.818Z,68.27
2018-06-07T18:58:12.861Z,67.96
2018-06-07T19:00:41.766Z,68.49
2018-06-07T19:03:10.614Z,70.21
2018-06-07T19:05:39.451Z,68.70
2018-06-07T19:08:08.426Z,68.22
2018-06-07T19:10:37.497Z,68.77
2018-06-07T19:13:10.590Z,69.36
2018-06-07T19:15:39.743Z,69.81
2018-06-07T19:18:08.923Z,70.42
2018-06-07T19:20:43.118Z,71.19
2018-06-07T19:23:12.192Z,72.07
2018-06-07T19:27:48.967Z,71.99
2018-06-07T19:30:18.047Z,71.80
2018-06-07T19:32:52.086Z,72.23
2018-06-07T19:35:21.209Z,72.83
2018-06-07T19:37:51.393Z,72.52
2018-06-07T19:40:25.425Z,72.58
2018-06-07T19:42:54.455Z,73.24
2018-06-07T19:45:23.410Z,73.38
2018-06-07T19:47:52.349Z,73.62
2018-06-07T19:50:21.419Z,73.44
2018-06-07T19:52:50.349Z,73.53
2018-06-07T19:55:19.261Z,73.53
2018-06-07T19:57:48.238Z,73.94
2018-06-07T20:00:17.164Z,74.05
2018-06-07T20:02:46.382Z,73.60
2018-06-07T20:05:15.290Z,73.36
2018-06-07T20:07:44.504Z,73.38
2018-06-07T20:10:13.429Z,72.44
2018-06-07T20:12:42.462Z,72.08
2018-06-07T20:15:11.450Z,72.38
2018-06-07T20:17:40.260Z,72.94
2018-06-07T20:20:09.456Z,73.41
2018-06-07T20:22:38.452Z,72.67
2018-06-07T20:25:07.360Z,73.42
2018-06-07T20:27:36.302Z,73.16
2018-06-07T20:30:05.165Z,73.28
2018-06-07T20:32:34.239Z,73.53
2018-06-07T20:35:03.199Z,73.93
2018-06-07T20:37:32.036Z,73.26
2018-06-07T20:40:01.190Z,73.48
2018-06-07T20:42:30.437Z,74.00
2018-06-07T20:44:59.302Z,73.75
2018-06-07T20:47:28.404Z,73.88
2018-06-07T20:49:57.585Z,74.34
2018-06-07T20:52:26.363Z,74.67
2018-06-07T20:54:55.324Z,74.67
2018-06-07T20:57:24.533Z,74.77
2018-06-07T20:59:53.352Z,74.96
2018-06-07T21:02:22.443Z,74.37
2018-06-07T21:04:51.617Z,74.21
2018-06-07T21:07:20.871Z,74.53
2018-06-07T21:09:49.797Z,74.72
2018-06-07T21:12:18.917Z,74.77
2018-06-07T21:14:48.090Z,74.71
2018-06-07T21:17:17.515Z,74.01
2018-06-07T21:19:46.853Z,73.86
2018-06-07T21:22:15.906Z,73.56
2018-06-07T21:24:44.931Z,73.30
2018-06-07T21:27:13.871Z,72.82
2018-06-07T21:29:42.764Z,72.84
2018-06-07T21:32:11.731Z,72.65
2018-06-07T21:34:40.652Z,73.15
2018-06-07T21:37:09.701Z,72.34
2018-06-07T21:39:38.527Z,72.58
2018-06-07T21:42:07.619Z,72.88
2018-06-07T21:44:36.640Z,72.88
2018-06-07T21:47:05.783Z,72.75
2018-06-07T21:49:34.753Z,72.47
2018-06-07T21:52:03.746Z,72.04
2018-06-07T21:54:32.794Z,72.21
2018-06-07T21:57:01.967Z,71.66
2018-06-07T21:59:31.990Z,71.31
2018-06-07T22:02:01.088Z,71.60
2018-06-07T22:04:30.221Z,71.95
2018-06-07T22:06:59.283Z,72.59
2018-06-07T22:09:28.247Z,72.73
2018-06-07T22:11:57.314Z,72.58
2018-06-07T22:14:26.358Z,72.43
2018-06-07T22:16:55.406Z,72.53
2018-06-07T22:19:24.322Z,72.68
2018-06-07T22:21:53.408Z,72.79
2018-06-07T22:24:22.381Z,72.93
2018-06-07T22:26:51.293Z,73.12
2018-06-07T22:29:20.309Z,73.06
2018-06-07T22:31:49.379Z,72.52
2018-06-07T22:34:18.390Z,72.58
2018-06-07T22:36:47.186Z,72.86
2018-06-07T22:39:16.256Z,72.83
2018-06-07T22:41:45.167Z,72.92
2018-06-07T22:44:14.023Z,73.34
2018-06-07T22:46:43.264Z,73.65
2018-06-07T22:49:12.694Z,73.60
2018-06-07T22:51:42.105Z,73.89
2018-06-07T22:54:10.926Z,73.62
2018-06-07T22:56:39.710Z,73.84
2018-06-07T22:59:08.654Z,73.99
2018-06-07T23:01:37.590Z,73.94
2018-06-07T23:04:06.603Z,73.72
2018-06-07T23:06:35.364Z,73.81
2018-06-07T23:09:05.802Z,73.31
2018-06-07T23:11:34.689Z,73.77
2018-06-07T23:14:03.508Z,74.86
2018-06-07T23:16:32.503Z,74.55
2018-06-07T23:19:01.555Z,74.24
2018-06-07T23:21:30.334Z,73.78
2018-06-07T23:23:59.273Z,73.62
2018-06-07T23:26:28.234Z,73.54
2018-06-07T23:28:57.262Z,73.50
2018-06-07T23:31:26.002Z,73.42
2018-06-07T23:33:55.192Z,73.53
2018-06-07T23:36:24.109Z,73.74
2018-06-07T23:38:53.023Z,73.95
2018-06-07T23:41:22.026Z,73.51
2018-06-07T23:43:51.009Z,73.69
2018-06-07T23:46:19.978Z,74.19
2018-06-07T23:48:49.203Z,74.03
2018-06-07T23:51:18.019Z,72.97
2018-06-07T23:53:47.027Z,73.23
2018-06-07T23:56:16.224Z,72.68
2018-06-07T23:58:45.426Z,73.74
